sensor_id;sensor_type;location;lat;lon;timestamp;P1;durP1;ratioP1;P2;durP2;ratioP2
14778;SDS011;7481;53.750;10.570;2023-08-31T00:02:20;16.97;;;13.00;;
14778;SDS011;7481;53.750;10.570;2023-08-31T00:06:43;20.10;;;15.37;;
14778;SDS011;7481;53.750;10.570;2023-08-31T00:11:06;14.87;;;13.23;;
14778;SDS011;7481;53.750;10.570;2023-08-31T00:15:29;16.33;;;14.60;;
14778;SDS011;7481;53.750;10.570;2023-08-31T00:19:54;17.47;;;15.40;;
14778;SDS011;7481;53.750;10.570;2023-08-31T00:24:16;20.37;;;16.77;;
14778;SDS011;7481;53.750;10.570;2023-08-31T00:28:41;23.03;;;17.17;;
14778;SDS011;7481;53.750;10.570;2023-08-31T00:33:05;20.43;;;16.97;;
14778;SDS011;7481;53.750;10.570;2023-08-31T00:37:28;21.07;;;17.03;;
14778;SDS011;7481;53.750;10.570;2023-08-31T00:41:52;20.47;;;17.63;;
14778;SDS011;7481;53.750;10.570;2023-08-31T00:46:14;21.13;;;16.73;;
14778;SDS011;7481;53.750;10.570;2023-08-31T00:50:38;23.57;;;19.60;;
14778;SDS011;7481;53.750;10.570;2023-08-31T00:55:00;22.57;;;18.40;;
14778;SDS011;7481;53.750;10.570;2023-08-31T00:59:26;22.03;;;17.67;;
14778;SDS011;7481;53.750;10.570;2023-08-31T01:04:11;21.73;;;18.43;;
14778;SDS011;7481;53.750;10.570;2023-08-31T01:13:02;23.03;;;16.80;;
14778;SDS011;7481;53.750;10.570;2023-08-31T01:17:26;21.60;;;16.40;;
14778;SDS011;7481;53.750;10.570;2023-08-31T01:21:50;22.47;;;17.53;;
14778;SDS011;7481;53.750;10.570;2023-08-31T01:26:16;20.43;;;16.20;;
14778;SDS011;7481;53.750;10.570;2023-08-31T01:30:39;19.53;;;15.73;;
14778;SDS011;7481;53.750;10.570;2023-08-31T01:35:02;22.10;;;17.43;;
14778;SDS011;7481;53.750;10.570;2023-08-31T01:39:29;18.47;;;15.93;;
14778;SDS011;7481;53.750;10.570;2023-08-31T01:43:56;18.17;;;14.93;;
14778;SDS011;7481;53.750;10.570;2023-08-31T01:48:19;17.33;;;14.37;;
14778;SDS011;7481;53.750;10.570;2023-08-31T01:52:42;19.63;;;14.67;;
14778;SDS011;7481;53.750;10.570;2023-08-31T01:57:04;18.67;;;14.70;;
14778;SDS011;7481;53.750;10.570;2023-08-31T02:01:27;19.50;;;14.40;;
14778;SDS011;7481;53.750;10.570;2023-08-31T02:05:50;16.00;;;13.63;;
14778;SDS011;7481;53.750;10.570;2023-08-31T02:10:13;16.20;;;13.50;;
14778;SDS011;7481;53.750;10.570;2023-08-31T02:14:36;17.23;;;13.07;;
14778;SDS011;7481;53.750;10.570;2023-08-31T02:18:59;15.97;;;12.67;;
14778;SDS011;7481;53.750;10.570;2023-08-31T02:23:21;13.93;;;11.67;;
14778;SDS011;7481;53.750;10.570;2023-08-31T02:27:44;17.97;;;11.80;;
14778;SDS011;7481;53.750;10.570;2023-08-31T02:32:06;15.63;;;10.93;;
14778;SDS011;7481;53.750;10.570;2023-08-31T02:36:29;13.20;;;11.20;;
14778;SDS011;7481;53.750;10.570;2023-08-31T02:40:51;13.73;;;11.53;;
14778;SDS011;7481;53.750;10.570;2023-08-31T02:45:14;14.93;;;10.93;;
14778;SDS011;7481;53.750;10.570;2023-08-31T02:49:37;16.40;;;11.57;;
14778;SDS011;7481;53.750;10.570;2023-08-31T02:54:00;14.00;;;11.50;;
14778;SDS011;7481;53.750;10.570;2023-08-31T02:58:22;13.77;;;11.73;;
14778;SDS011;7481;53.750;10.570;2023-08-31T03:02:44;13.90;;;10.83;;
14778;SDS011;7481;53.750;10.570;2023-08-31T03:07:07;15.30;;;11.03;;
14778;SDS011;7481;53.750;10.570;2023-08-31T03:11:30;11.83;;;10.13;;
14778;SDS011;7481;53.750;10.570;2023-08-31T03:15:52;10.70;;;9.43;;
14778;SDS011;7481;53.750;10.570;2023-08-31T03:20:15;15.43;;;10.57;;
14778;SDS011;7481;53.750;10.570;2023-08-31T03:24:37;13.77;;;10.45;;
14778;SDS011;7481;53.750;10.570;2023-08-31T03:29:00;12.03;;;10.27;;
14778;SDS011;7481;53.750;10.570;2023-08-31T03:33:22;12.33;;;10.13;;
14778;SDS011;7481;53.750;10.570;2023-08-31T03:37:48;10.43;;;9.30;;
14778;SDS011;7481;53.750;10.570;2023-08-31T03:42:10;9.67;;;8.10;;
14778;SDS011;7481;53.750;10.570;2023-08-31T03:46:33;9.67;;;8.13;;
14778;SDS011;7481;53.750;10.570;2023-08-31T03:50:55;11.30;;;8.57;;
14778;SDS011;7481;53.750;10.570;2023-08-31T03:55:18;9.67;;;7.77;;
14778;SDS011;7481;53.750;10.570;2023-08-31T03:59:40;12.03;;;8.83;;
14778;SDS011;7481;53.750;10.570;2023-08-31T04:04:03;11.77;;;9.17;;
14778;SDS011;7481;53.750;10.570;2023-08-31T04:08:26;9.53;;;8.53;;
14778;SDS011;7481;53.750;10.570;2023-08-31T04:12:48;11.03;;;8.67;;
14778;SDS011;7481;53.750;10.570;2023-08-31T04:17:11;11.77;;;8.87;;
14778;SDS011;7481;53.750;10.570;2023-08-31T04:21:33;10.43;;;8.50;;
14778;SDS011;7481;53.750;10.570;2023-08-31T04:25:56;12.83;;;8.97;;
14778;SDS011;7481;53.750;10.570;2023-08-31T04:30:19;14.07;;;8.63;;
14778;SDS011;7481;53.750;10.570;2023-08-31T04:34:41;13.17;;;9.37;;
14778;SDS011;7481;53.750;10.570;2023-08-31T04:39:04;12.43;;;10.20;;
14778;SDS011;7481;53.750;10.570;2023-08-31T04:43:27;14.30;;;9.70;;
14778;SDS011;7481;53.750;10.570;2023-08-31T04:47:49;13.50;;;9.57;;
14778;SDS011;7481;53.750;10.570;2023-08-31T04:52:13;10.47;;;8.80;;
14778;SDS011;7481;53.750;10.570;2023-08-31T04:56:35;12.20;;;9.33;;
14778;SDS011;7481;53.750;10.570;2023-08-31T05:00:58;12.37;;;8.33;;
14778;SDS011;7481;53.750;10.570;2023-08-31T05:05:21;12.37;;;9.40;;
14778;SDS011;7481;53.750;10.570;2023-08-31T05:09:43;16.13;;;8.23;;
14778;SDS011;7481;53.750;10.570;2023-08-31T05:14:06;11.20;;;8.37;;
14778;SDS011;7481;53.750;10.570;2023-08-31T05:18:28;10.90;;;8.10;;
14778;SDS011;7481;53.750;10.570;2023-08-31T05:22:51;14.40;;;8.27;;
14778;SDS011;7481;53.750;10.570;2023-08-31T05:27:13;12.60;;;8.80;;
14778;SDS011;7481;53.750;10.570;2023-08-31T05:31:36;12.27;;;9.43;;
14778;SDS011;7481;53.750;10.570;2023-08-31T05:36:00;12.53;;;9.37;;
14778;SDS011;7481;53.750;10.570;2023-08-31T05:40:23;12.43;;;9.30;;
14778;SDS011;7481;53.750;10.570;2023-08-31T05:44:45;11.87;;;8.00;;
14778;SDS011;7481;53.750;10.570;2023-08-31T05:49:08;11.17;;;8.37;;
14778;SDS011;7481;53.750;10.570;2023-08-31T05:53:31;11.10;;;6.97;;
14778;SDS011;7481;53.750;10.570;2023-08-31T05:57:53;11.77;;;7.83;;
14778;SDS011;7481;53.750;10.570;2023-08-31T06:02:16;11.80;;;7.53;;
14778;SDS011;7481;53.750;10.570;2023-08-31T06:06:38;16.90;;;9.13;;
14778;SDS011;7481;53.750;10.570;2023-08-31T06:11:01;8.70;;;7.27;;
14778;SDS011;7481;53.750;10.570;2023-08-31T06:15:23;9.27;;;6.70;;
14778;SDS011;7481;53.750;10.570;2023-08-31T06:19:46;8.27;;;6.43;;
14778;SDS011;7481;53.750;10.570;2023-08-31T06:24:09;8.63;;;6.13;;
14778;SDS011;7481;53.750;10.570;2023-08-31T06:28:34;7.97;;;5.73;;
14778;SDS011;7481;53.750;10.570;2023-08-31T06:32:56;6.70;;;4.70;;
14778;SDS011;7481;53.750;10.570;2023-08-31T06:37:19;5.67;;;4.53;;
14778;SDS011;7481;53.750;10.570;2023-08-31T06:41:41;8.97;;;4.33;;
14778;SDS011;7481;53.750;10.570;2023-08-31T06:46:04;7.73;;;5.03;;
14778;SDS011;7481;53.750;10.570;2023-08-31T06:50:45;9.63;;;4.73;;
14778;SDS011;7481;53.750;10.570;2023-08-31T06:55:08;7.83;;;4.57;;
14778;SDS011;7481;53.750;10.570;2023-08-31T06:59:32;6.37;;;4.27;;
14778;SDS011;7481;53.750;10.570;2023-08-31T07:03:55;5.77;;;4.47;;
14778;SDS011;7481;53.750;10.570;2023-08-31T07:08:17;7.33;;;4.67;;
14778;SDS011;7481;53.750;10.570;2023-08-31T07:12:40;7.27;;;3.73;;
14778;SDS011;7481;53.750;10.570;2023-08-31T07:17:03;7.10;;;4.20;;
14778;SDS011;7481;53.750;10.570;2023-08-31T07:21:26;7.97;;;3.57;;
14778;SDS011;7481;53.750;10.570;2023-08-31T07:25:48;5.23;;;3.10;;
14778;SDS011;7481;53.750;10.570;2023-08-31T07:30:11;5.22;;;3.13;;
14778;SDS011;7481;53.750;10.570;2023-08-31T07:34:33;7.03;;;2.75;;
14778;SDS011;7481;53.750;10.570;2023-08-31T07:38:56;5.55;;;2.58;;
14778;SDS011;7481;53.750;10.570;2023-08-31T07:43:19;3.78;;;2.20;;
14778;SDS011;7481;53.750;10.570;2023-08-31T07:47:42;4.28;;;1.92;;
14778;SDS011;7481;53.750;10.570;2023-08-31T07:52:04;5.72;;;2.53;;
14778;SDS011;7481;53.750;10.570;2023-08-31T07:56:27;3.75;;;2.08;;
14778;SDS011;7481;53.750;10.570;2023-08-31T08:00:52;3.22;;;2.03;;
14778;SDS011;7481;53.750;10.570;2023-08-31T08:05:15;3.35;;;2.08;;
14778;SDS011;7481;53.750;10.570;2023-08-31T08:09:38;3.53;;;1.90;;
14778;SDS011;7481;53.750;10.570;2023-08-31T08:14:00;4.45;;;2.08;;
14778;SDS011;7481;53.750;10.570;2023-08-31T08:18:23;3.83;;;1.80;;
14778;SDS011;7481;53.750;10.570;2023-08-31T08:22:45;3.05;;;1.70;;
14778;SDS011;7481;53.750;10.570;2023-08-31T08:27:09;3.33;;;1.80;;
14778;SDS011;7481;53.750;10.570;2023-08-31T08:31:31;2.08;;;1.40;;
14778;SDS011;7481;53.750;10.570;2023-08-31T08:35:55;4.43;;;1.58;;
14778;SDS011;7481;53.750;10.570;2023-08-31T08:40:18;2.10;;;1.48;;
14778;SDS011;7481;53.750;10.570;2023-08-31T08:44:41;3.75;;;1.75;;
14778;SDS011;7481;53.750;10.570;2023-08-31T08:49:03;3.83;;;1.77;;
14778;SDS011;7481;53.750;10.570;2023-08-31T08:53:27;2.92;;;1.60;;
14778;SDS011;7481;53.750;10.570;2023-08-31T08:57:50;2.92;;;1.60;;
14778;SDS011;7481;53.750;10.570;2023-08-31T09:02:12;3.53;;;1.83;;
14778;SDS011;7481;53.750;10.570;2023-08-31T09:06:35;2.70;;;1.50;;
14778;SDS011;7481;53.750;10.570;2023-08-31T09:10:58;4.05;;;1.70;;
14778;SDS011;7481;53.750;10.570;2023-08-31T09:15:21;4.93;;;1.83;;
14778;SDS011;7481;53.750;10.570;2023-08-31T09:19:43;2.03;;;1.55;;
14778;SDS011;7481;53.750;10.570;2023-08-31T09:24:06;1.92;;;1.42;;
14778;SDS011;7481;53.750;10.570;2023-08-31T09:28:30;2.63;;;1.52;;
14778;SDS011;7481;53.750;10.570;2023-08-31T09:32:53;2.38;;;1.63;;
14778;SDS011;7481;53.750;10.570;2023-08-31T09:37:16;2.15;;;1.30;;
14778;SDS011;7481;53.750;10.570;2023-08-31T09:41:51;4.43;;;1.60;;
14778;SDS011;7481;53.750;10.570;2023-08-31T09:46:14;2.97;;;1.40;;
14778;SDS011;7481;53.750;10.570;2023-08-31T09:50:37;1.70;;;1.50;;
14778;SDS011;7481;53.750;10.570;2023-08-31T09:55:01;1.85;;;1.40;;
14778;SDS011;7481;53.750;10.570;2023-08-31T09:59:26;2.75;;;1.50;;
14778;SDS011;7481;53.750;10.570;2023-08-31T10:03:50;2.47;;;1.40;;
14778;SDS011;7481;53.750;10.570;2023-08-31T10:08:12;2.28;;;1.30;;
14778;SDS011;7481;53.750;10.570;2023-08-31T10:12:35;1.50;;;1.40;;
14778;SDS011;7481;53.750;10.570;2023-08-31T10:16:58;3.58;;;1.63;;
14778;SDS011;7481;53.750;10.570;2023-08-31T10:21:20;4.13;;;1.70;;
14778;SDS011;7481;53.750;10.570;2023-08-31T10:34:43;3.40;;;1.58;;
14778;SDS011;7481;53.750;10.570;2023-08-31T10:39:14;2.53;;;1.73;;
14778;SDS011;7481;53.750;10.570;2023-08-31T10:43:47;3.28;;;1.60;;
14778;SDS011;7481;53.750;10.570;2023-08-31T10:48:13;2.42;;;1.98;;
14778;SDS011;7481;53.750;10.570;2023-08-31T10:52:42;4.70;;;2.30;;
14778;SDS011;7481;53.750;10.570;2023-08-31T10:57:05;2.08;;;1.50;;
14778;SDS011;7481;53.750;10.570;2023-08-31T11:06:10;3.05;;;2.20;;
14778;SDS011;7481;53.750;10.570;2023-08-31T11:10:32;4.53;;;2.22;;
14778;SDS011;7481;53.750;10.570;2023-08-31T11:14:54;4.18;;;1.92;;
14778;SDS011;7481;53.750;10.570;2023-08-31T11:19:17;5.78;;;2.10;;
14778;SDS011;7481;53.750;10.570;2023-08-31T11:23:40;2.72;;;1.90;;
14778;SDS011;7481;53.750;10.570;2023-08-31T11:28:03;4.05;;;1.90;;
14778;SDS011;7481;53.750;10.570;2023-08-31T11:32:27;4.20;;;2.17;;
14778;SDS011;7481;53.750;10.570;2023-08-31T11:36:50;6.55;;;2.30;;
14778;SDS011;7481;53.750;10.570;2023-08-31T11:41:12;6.05;;;1.90;;
14778;SDS011;7481;53.750;10.570;2023-08-31T11:45:35;2.40;;;1.70;;
14778;SDS011;7481;53.750;10.570;2023-08-31T11:49:59;5.60;;;2.03;;
14778;SDS011;7481;53.750;10.570;2023-08-31T11:54:25;2.85;;;1.90;;
14778;SDS011;7481;53.750;10.570;2023-08-31T11:58:50;3.28;;;1.80;;
14778;SDS011;7481;53.750;10.570;2023-08-31T12:03:25;2.53;;;1.60;;
14778;SDS011;7481;53.750;10.570;2023-08-31T12:08:05;2.05;;;1.83;;
14778;SDS011;7481;53.750;10.570;2023-08-31T12:12:27;2.97;;;1.52;;
14778;SDS011;7481;53.750;10.570;2023-08-31T12:16:50;2.65;;;1.83;;
14778;SDS011;7481;53.750;10.570;2023-08-31T12:21:13;4.70;;;1.63;;
14778;SDS011;7481;53.750;10.570;2023-08-31T12:25:35;3.97;;;1.50;;
14778;SDS011;7481;53.750;10.570;2023-08-31T12:29:58;2.85;;;1.30;;
14778;SDS011;7481;53.750;10.570;2023-08-31T12:34:20;1.63;;;1.40;;
14778;SDS011;7481;53.750;10.570;2023-08-31T12:38:43;2.60;;;1.40;;
14778;SDS011;7481;53.750;10.570;2023-08-31T12:43:05;2.05;;;1.40;;
14778;SDS011;7481;53.750;10.570;2023-08-31T12:47:28;1.90;;;1.42;;
14778;SDS011;7481;53.750;10.570;2023-08-31T12:51:50;1.55;;;1.20;;
14778;SDS011;7481;53.750;10.570;2023-08-31T12:56:13;2.42;;;1.40;;
14778;SDS011;7481;53.750;10.570;2023-08-31T13:00:42;2.45;;;1.60;;
14778;SDS011;7481;53.750;10.570;2023-08-31T13:05:05;1.50;;;1.40;;
14778;SDS011;7481;53.750;10.570;2023-08-31T13:09:29;2.13;;;1.45;;
14778;SDS011;7481;53.750;10.570;2023-08-31T13:13:51;2.40;;;1.33;;
14778;SDS011;7481;53.750;10.570;2023-08-31T13:18:14;3.22;;;1.70;;
14778;SDS011;7481;53.750;10.570;2023-08-31T13:22:37;2.03;;;1.45;;
14778;SDS011;7481;53.750;10.570;2023-08-31T13:27:00;1.60;;;1.20;;
14778;SDS011;7481;53.750;10.570;2023-08-31T13:31:23;5.82;;;1.75;;
14778;SDS011;7481;53.750;10.570;2023-08-31T13:35:46;2.28;;;1.35;;
14778;SDS011;7481;53.750;10.570;2023-08-31T13:40:08;1.33;;;1.05;;
14778;SDS011;7481;53.750;10.570;2023-08-31T13:44:31;0.80;;;0.80;;
14778;SDS011;7481;53.750;10.570;2023-08-31T13:48:54;0.82;;;0.82;;
14778;SDS011;7481;53.750;10.570;2023-08-31T13:53:17;1.25;;;1.00;;
14778;SDS011;7481;53.750;10.570;2023-08-31T13:57:41;0.80;;;0.80;;
14778;SDS011;7481;53.750;10.570;2023-08-31T14:02:04;1.13;;;0.90;;
14778;SDS011;7481;53.750;10.570;2023-08-31T14:06:27;1.00;;;0.90;;
14778;SDS011;7481;53.750;10.570;2023-08-31T14:10:49;1.15;;;1.00;;
14778;SDS011;7481;53.750;10.570;2023-08-31T14:15:13;0.88;;;0.82;;
14778;SDS011;7481;53.750;10.570;2023-08-31T14:19:36;0.70;;;0.70;;
14778;SDS011;7481;53.750;10.570;2023-08-31T14:23:58;0.70;;;0.70;;
14778;SDS011;7481;53.750;10.570;2023-08-31T14:28:21;0.80;;;0.80;;
14778;SDS011;7481;53.750;10.570;2023-08-31T14:32:43;1.08;;;0.98;;
14778;SDS011;7481;53.750;10.570;2023-08-31T14:37:06;2.15;;;1.30;;
14778;SDS011;7481;53.750;10.570;2023-08-31T14:41:32;1.10;;;1.00;;
14778;SDS011;7481;53.750;10.570;2023-08-31T14:45:54;1.10;;;1.00;;
14778;SDS011;7481;53.750;10.570;2023-08-31T14:50:17;0.98;;;0.93;;
14778;SDS011;7481;53.750;10.570;2023-08-31T14:54:39;0.88;;;0.88;;
14778;SDS011;7481;53.750;10.570;2023-08-31T14:59:02;2.42;;;1.15;;
14778;SDS011;7481;53.750;10.570;2023-08-31T15:03:24;1.65;;;1.30;;
14778;SDS011;7481;53.750;10.570;2023-08-31T15:07:47;1.42;;;1.30;;
14778;SDS011;7481;53.750;10.570;2023-08-31T15:12:09;1.67;;;1.48;;
14778;SDS011;7481;53.750;10.570;2023-08-31T15:16:33;1.80;;;1.10;;
14778;SDS011;7481;53.750;10.570;2023-08-31T15:20:55;1.38;;;0.88;;
14778;SDS011;7481;53.750;10.570;2023-08-31T15:25:18;1.23;;;1.00;;
14778;SDS011;7481;53.750;10.570;2023-08-31T15:29:40;1.30;;;1.00;;
14778;SDS011;7481;53.750;10.570;2023-08-31T15:34:03;1.60;;;1.10;;
14778;SDS011;7481;53.750;10.570;2023-08-31T15:38:25;1.60;;;1.20;;
14778;SDS011;7481;53.750;10.570;2023-08-31T15:42:48;1.50;;;1.20;;
14778;SDS011;7481;53.750;10.570;2023-08-31T15:47:10;1.55;;;1.08;;
14778;SDS011;7481;53.750;10.570;2023-08-31T15:51:33;1.98;;;1.00;;
14778;SDS011;7481;53.750;10.570;2023-08-31T15:55:55;2.28;;;1.10;;
14778;SDS011;7481;53.750;10.570;2023-08-31T16:00:18;1.40;;;1.13;;
14778;SDS011;7481;53.750;10.570;2023-08-31T16:04:44;1.58;;;1.02;;
14778;SDS011;7481;53.750;10.570;2023-08-31T16:09:09;1.77;;;1.10;;
14778;SDS011;7481;53.750;10.570;2023-08-31T16:13:32;2.10;;;1.55;;
14778;SDS011;7481;53.750;10.570;2023-08-31T16:17:56;1.88;;;1.30;;
14778;SDS011;7481;53.750;10.570;2023-08-31T16:22:19;2.05;;;1.08;;
14778;SDS011;7481;53.750;10.570;2023-08-31T16:26:41;2.00;;;1.20;;
14778;SDS011;7481;53.750;10.570;2023-08-31T16:31:04;1.33;;;1.10;;
14778;SDS011;7481;53.750;10.570;2023-08-31T16:35:27;1.85;;;1.13;;
14778;SDS011;7481;53.750;10.570;2023-08-31T16:39:50;2.42;;;1.30;;
14778;SDS011;7481;53.750;10.570;2023-08-31T16:44:13;1.85;;;1.25;;
14778;SDS011;7481;53.750;10.570;2023-08-31T16:48:36;1.80;;;1.00;;
14778;SDS011;7481;53.750;10.570;2023-08-31T16:52:58;1.95;;;1.25;;
14778;SDS011;7481;53.750;10.570;2023-08-31T16:57:21;2.13;;;1.13;;
14778;SDS011;7481;53.750;10.570;2023-08-31T17:01:43;2.33;;;1.40;;
14778;SDS011;7481;53.750;10.570;2023-08-31T17:06:06;2.97;;;1.40;;
14778;SDS011;7481;53.750;10.570;2023-08-31T17:10:28;1.80;;;1.25;;
14778;SDS011;7481;53.750;10.570;2023-08-31T17:14:51;1.27;;;1.00;;
14778;SDS011;7481;53.750;10.570;2023-08-31T17:19:13;2.83;;;1.60;;
14778;SDS011;7481;53.750;10.570;2023-08-31T17:23:36;2.88;;;1.30;;
14778;SDS011;7481;53.750;10.570;2023-08-31T17:27:58;2.25;;;1.55;;
14778;SDS011;7481;53.750;10.570;2023-08-31T17:32:21;1.48;;;1.05;;
14778;SDS011;7481;53.750;10.570;2023-08-31T17:36:43;1.33;;;1.23;;
14778;SDS011;7481;53.750;10.570;2023-08-31T17:41:06;2.03;;;1.15;;
14778;SDS011;7481;53.750;10.570;2023-08-31T17:45:28;1.90;;;1.20;;
14778;SDS011;7481;53.750;10.570;2023-08-31T17:49:51;2.95;;;1.40;;
14778;SDS011;7481;53.750;10.570;2023-08-31T17:54:14;3.70;;;1.27;;
14778;SDS011;7481;53.750;10.570;2023-08-31T17:58:36;2.00;;;1.30;;
14778;SDS011;7481;53.750;10.570;2023-08-31T18:02:59;3.20;;;1.40;;
14778;SDS011;7481;53.750;10.570;2023-08-31T18:07:22;1.75;;;1.25;;
14778;SDS011;7481;53.750;10.570;2023-08-31T18:11:44;2.83;;;1.40;;
14778;SDS011;7481;53.750;10.570;2023-08-31T18:16:07;1.77;;;0.98;;
14778;SDS011;7481;53.750;10.570;2023-08-31T18:20:30;1.90;;;1.30;;
14778;SDS011;7481;53.750;10.570;2023-08-31T18:24:52;1.67;;;1.47;;
14778;SDS011;7481;53.750;10.570;2023-08-31T18:29:15;2.93;;;1.40;;
14778;SDS011;7481;53.750;10.570;2023-08-31T18:33:37;1.67;;;1.30;;
14778;SDS011;7481;53.750;10.570;2023-08-31T18:37:59;1.53;;;1.40;;
14778;SDS011;7481;53.750;10.570;2023-08-31T18:42:22;1.87;;;1.40;;
14778;SDS011;7481;53.750;10.570;2023-08-31T18:46:46;1.50;;;1.17;;
14778;SDS011;7481;53.750;10.570;2023-08-31T18:51:09;2.53;;;1.73;;
14778;SDS011;7481;53.750;10.570;2023-08-31T18:55:32;2.93;;;1.50;;
14778;SDS011;7481;53.750;10.570;2023-08-31T18:59:55;3.30;;;1.30;;
14778;SDS011;7481;53.750;10.570;2023-08-31T19:04:17;2.13;;;1.40;;
14778;SDS011;7481;53.750;10.570;2023-08-31T19:08:40;1.63;;;1.30;;
14778;SDS011;7481;53.750;10.570;2023-08-31T19:13:06;2.13;;;1.67;;
14778;SDS011;7481;53.750;10.570;2023-08-31T19:17:29;3.47;;;1.40;;
14778;SDS011;7481;53.750;10.570;2023-08-31T19:21:51;1.73;;;1.30;;
14778;SDS011;7481;53.750;10.570;2023-08-31T19:26:14;2.63;;;1.43;;
14778;SDS011;7481;53.750;10.570;2023-08-31T19:30:36;1.73;;;1.37;;
14778;SDS011;7481;53.750;10.570;2023-08-31T19:34:59;2.40;;;1.70;;
14778;SDS011;7481;53.750;10.570;2023-08-31T19:39:22;2.57;;;1.63;;
14778;SDS011;7481;53.750;10.570;2023-08-31T19:43:44;1.80;;;1.60;;
14778;SDS011;7481;53.750;10.570;2023-08-31T19:48:07;2.40;;;1.70;;
14778;SDS011;7481;53.750;10.570;2023-08-31T19:52:30;2.57;;;1.70;;
14778;SDS011;7481;53.750;10.570;2023-08-31T19:56:52;2.20;;;1.80;;
14778;SDS011;7481;53.750;10.570;2023-08-31T20:01:15;2.80;;;1.70;;
14778;SDS011;7481;53.750;10.570;2023-08-31T20:05:37;3.00;;;1.67;;
14778;SDS011;7481;53.750;10.570;2023-08-31T20:10:00;2.93;;;1.57;;
14778;SDS011;7481;53.750;10.570;2023-08-31T20:14:24;3.87;;;1.77;;
14778;SDS011;7481;53.750;10.570;2023-08-31T20:18:46;3.30;;;2.00;;
14778;SDS011;7481;53.750;10.570;2023-08-31T20:23:09;2.60;;;2.00;;
14778;SDS011;7481;53.750;10.570;2023-08-31T20:27:35;3.37;;;1.77;;
14778;SDS011;7481;53.750;10.570;2023-08-31T20:31:57;3.60;;;1.90;;
14778;SDS011;7481;53.750;10.570;2023-08-31T20:36:20;3.00;;;1.90;;
14778;SDS011;7481;53.750;10.570;2023-08-31T20:40:42;4.27;;;1.90;;
14778;SDS011;7481;53.750;10.570;2023-08-31T20:45:06;3.33;;;1.90;;
14778;SDS011;7481;53.750;10.570;2023-08-31T20:49:35;4.00;;;2.10;;
14778;SDS011;7481;53.750;10.570;2023-08-31T20:53:59;4.63;;;2.00;;
14778;SDS011;7481;53.750;10.570;2023-08-31T20:58:22;3.93;;;2.30;;
14778;SDS011;7481;53.750;10.570;2023-08-31T21:02:44;3.80;;;2.10;;
14778;SDS011;7481;53.750;10.570;2023-08-31T21:07:07;4.43;;;2.07;;
14778;SDS011;7481;53.750;10.570;2023-08-31T21:11:30;5.37;;;2.50;;
14778;SDS011;7481;53.750;10.570;2023-08-31T21:15:58;7.43;;;2.43;;
14778;SDS011;7481;53.750;10.570;2023-08-31T21:20:21;2.27;;;2.03;;
14778;SDS011;7481;53.750;10.570;2023-08-31T21:24:43;9.43;;;2.80;;
14778;SDS011;7481;53.750;10.570;2023-08-31T21:29:06;5.73;;;2.87;;
14778;SDS011;7481;53.750;10.570;2023-08-31T21:33:28;3.27;;;2.40;;
14778;SDS011;7481;53.750;10.570;2023-08-31T21:37:51;3.07;;;2.43;;
14778;SDS011;7481;53.750;10.570;2023-08-31T21:42:13;4.67;;;2.63;;
14778;SDS011;7481;53.750;10.570;2023-08-31T21:46:36;5.87;;;2.60;;
14778;SDS011;7481;53.750;10.570;2023-08-31T21:50:59;4.20;;;2.37;;
14778;SDS011;7481;53.750;10.570;2023-08-31T21:55:22;8.67;;;2.90;;
14778;SDS011;7481;53.750;10.570;2023-08-31T21:59:44;8.20;;;2.33;;
14778;SDS011;7481;53.750;10.570;2023-08-31T22:04:07;3.90;;;2.80;;
14778;SDS011;7481;53.750;10.570;2023-08-31T22:08:30;4.70;;;2.17;;
14778;SDS011;7481;53.750;10.570;2023-08-31T22:12:53;5.70;;;2.63;;
14778;SDS011;7481;53.750;10.570;2023-08-31T22:17:16;3.27;;;2.20;;
14778;SDS011;7481;53.750;10.570;2023-08-31T22:21:38;5.30;;;2.50;;
14778;SDS011;7481;53.750;10.570;2023-08-31T22:26:01;3.10;;;2.23;;
14778;SDS011;7481;53.750;10.570;2023-08-31T22:30:26;5.00;;;2.50;;
14778;SDS011;7481;53.750;10.570;2023-08-31T22:34:48;3.83;;;2.17;;
14778;SDS011;7481;53.750;10.570;2023-08-31T22:39:11;6.30;;;2.77;;
14778;SDS011;7481;53.750;10.570;2023-08-31T22:43:33;4.33;;;2.43;;
14778;SDS011;7481;53.750;10.570;2023-08-31T22:48:02;3.90;;;2.63;;
14778;SDS011;7481;53.750;10.570;2023-08-31T22:52:24;5.27;;;2.57;;
14778;SDS011;7481;53.750;10.570;2023-08-31T22:56:47;4.57;;;2.60;;
14778;SDS011;7481;53.750;10.570;2023-08-31T23:01:09;5.57;;;2.87;;
14778;SDS011;7481;53.750;10.570;2023-08-31T23:05:32;5.23;;;2.70;;
14778;SDS011;7481;53.750;10.570;2023-08-31T23:09:54;6.00;;;2.90;;
14778;SDS011;7481;53.750;10.570;2023-08-31T23:14:17;4.37;;;2.80;;
14778;SDS011;7481;53.750;10.570;2023-08-31T23:18:40;4.90;;;2.90;;
14778;SDS011;7481;53.750;10.570;2023-08-31T23:23:02;4.00;;;2.77;;
14778;SDS011;7481;53.750;10.570;2023-08-31T23:27:25;4.93;;;2.70;;
14778;SDS011;7481;53.750;10.570;2023-08-31T23:31:52;5.40;;;2.67;;
14778;SDS011;7481;53.750;10.570;2023-08-31T23:36:14;7.17;;;2.50;;
14778;SDS011;7481;53.750;10.570;2023-08-31T23:40:37;4.83;;;2.43;;
14778;SDS011;7481;53.750;10.570;2023-08-31T23:45:00;5.53;;;2.90;;
14778;SDS011;7481;53.750;10.570;2023-08-31T23:49:22;4.80;;;2.70;;
14778;SDS011;7481;53.750;10.570;2023-08-31T23:53:45;4.50;;;2.27;;
14778;SDS011;7481;53.750;10.570;2023-08-31T23:58:10;5.70;;;2.53;;
